sensor_id;sensor_type;location;lat;lon;timestamp;P1;durP1;ratioP1;P2;durP2;ratioP2
21315;SDS011;10817;55.820;13.030;2023-08-30T00:02:20;5.43;;;2.30;;
21315;SDS011;10817;55.820;13.030;2023-08-30T00:04:47;8.55;;;2.58;;
21315;SDS011;10817;55.820;13.030;2023-08-30T00:07:15;3.10;;;2.03;;
21315;SDS011;10817;55.820;13.030;2023-08-30T00:09:42;3.70;;;2.30;;
21315;SDS011;10817;55.820;13.030;2023-08-30T00:12:09;6.57;;;2.40;;
21315;SDS011;10817;55.820;13.030;2023-08-30T00:14:36;6.55;;;2.72;;
21315;SDS011;10817;55.820;13.030;2023-08-30T00:17:03;6.40;;;2.40;;
21315;SDS011;10817;55.820;13.030;2023-08-30T00:19:32;5.28;;;2.80;;
21315;SDS011;10817;55.820;13.030;2023-08-30T00:21:59;4.55;;;2.90;;
21315;SDS011;10817;55.820;13.030;2023-08-30T00:24:26;6.53;;;3.08;;
21315;SDS011;10817;55.820;13.030;2023-08-30T00:26:55;4.57;;;2.58;;
21315;SDS011;10817;55.820;13.030;2023-08-30T00:29:22;8.55;;;2.70;;
21315;SDS011;10817;55.820;13.030;2023-08-30T00:31:49;6.78;;;3.20;;
21315;SDS011;10817;55.820;13.030;2023-08-30T00:34:16;6.03;;;3.17;;
21315;SDS011;10817;55.820;13.030;2023-08-30T00:36:45;7.28;;;3.00;;
21315;SDS011;10817;55.820;13.030;2023-08-30T00:39:12;9.30;;;3.20;;
21315;SDS011;10817;55.820;13.030;2023-08-30T00:41:39;5.40;;;2.75;;
21315;SDS011;10817;55.820;13.030;2023-08-30T00:44:06;5.55;;;2.65;;
21315;SDS011;10817;55.820;13.030;2023-08-30T00:46:33;4.55;;;3.05;;
21315;SDS011;10817;55.820;13.030;2023-08-30T00:49:00;7.53;;;3.33;;
21315;SDS011;10817;55.820;13.030;2023-08-30T00:51:28;9.93;;;2.72;;
21315;SDS011;10817;55.820;13.030;2023-08-30T00:53:57;5.93;;;2.95;;
21315;SDS011;10817;55.820;13.030;2023-08-30T00:56:25;9.07;;;2.80;;
21315;SDS011;10817;55.820;13.030;2023-08-30T00:58:53;4.55;;;2.50;;
21315;SDS011;10817;55.820;13.030;2023-08-30T01:01:21;3.45;;;2.40;;
21315;SDS011;10817;55.820;13.030;2023-08-30T01:03:48;4.53;;;2.40;;
21315;SDS011;10817;55.820;13.030;2023-08-30T01:06:15;4.82;;;2.58;;
21315;SDS011;10817;55.820;13.030;2023-08-30T01:08:42;11.10;;;2.70;;
21315;SDS011;10817;55.820;13.030;2023-08-30T01:11:13;5.38;;;2.40;;
21315;SDS011;10817;55.820;13.030;2023-08-30T01:13:44;2.78;;;2.20;;
21315;SDS011;10817;55.820;13.030;2023-08-30T01:16:12;5.20;;;2.10;;
21315;SDS011;10817;55.820;13.030;2023-08-30T01:18:42;6.97;;;2.45;;
21315;SDS011;10817;55.820;13.030;2023-08-30T01:21:11;4.68;;;2.58;;
21315;SDS011;10817;55.820;13.030;2023-08-30T01:23:42;6.53;;;2.17;;
21315;SDS011;10817;55.820;13.030;2023-08-30T01:26:17;4.55;;;2.08;;
21315;SDS011;10817;55.820;13.030;2023-08-30T01:28:50;6.70;;;2.20;;
21315;SDS011;10817;55.820;13.030;2023-08-30T01:31:18;4.90;;;2.50;;
21315;SDS011;10817;55.820;13.030;2023-08-30T01:33:47;2.05;;;1.85;;
21315;SDS011;10817;55.820;13.030;2023-08-30T01:36:16;5.18;;;2.47;;
21315;SDS011;10817;55.820;13.030;2023-08-30T01:38:43;5.72;;;2.30;;
21315;SDS011;10817;55.820;13.030;2023-08-30T01:41:11;4.53;;;2.00;;
21315;SDS011;10817;55.820;13.030;2023-08-30T01:43:38;5.97;;;2.08;;
21315;SDS011;10817;55.820;13.030;2023-08-30T01:46:08;7.13;;;2.55;;
21315;SDS011;10817;55.820;13.030;2023-08-30T01:48:35;3.60;;;2.50;;
21315;SDS011;10817;55.820;13.030;2023-08-30T01:51:03;10.38;;;2.40;;
21315;SDS011;10817;55.820;13.030;2023-08-30T01:53:30;5.43;;;2.40;;
21315;SDS011;10817;55.820;13.030;2023-08-30T01:55:57;5.30;;;2.38;;
21315;SDS011;10817;55.820;13.030;2023-08-30T01:58:24;6.05;;;2.58;;
21315;SDS011;10817;55.820;13.030;2023-08-30T02:00:52;7.57;;;2.65;;
21315;SDS011;10817;55.820;13.030;2023-08-30T02:03:20;7.00;;;2.40;;
21315;SDS011;10817;55.820;13.030;2023-08-30T02:05:50;5.32;;;2.40;;
21315;SDS011;10817;55.820;13.030;2023-08-30T02:08:19;4.55;;;2.63;;
21315;SDS011;10817;55.820;13.030;2023-08-30T02:10:51;6.30;;;2.20;;
21315;SDS011;10817;55.820;13.030;2023-08-30T02:13:19;6.07;;;2.20;;
21315;SDS011;10817;55.820;13.030;2023-08-30T02:15:48;4.88;;;2.30;;
21315;SDS011;10817;55.820;13.030;2023-08-30T02:18:16;4.93;;;2.33;;
21315;SDS011;10817;55.820;13.030;2023-08-30T02:20:44;7.45;;;2.55;;
21315;SDS011;10817;55.820;13.030;2023-08-30T02:23:12;8.20;;;2.35;;
21315;SDS011;10817;55.820;13.030;2023-08-30T02:25:39;4.18;;;2.30;;
21315;SDS011;10817;55.820;13.030;2023-08-30T02:28:07;7.53;;;2.70;;
21315;SDS011;10817;55.820;13.030;2023-08-30T02:30:34;4.47;;;2.30;;
21315;SDS011;10817;55.820;13.030;2023-08-30T02:33:01;5.47;;;2.20;;
21315;SDS011;10817;55.820;13.030;2023-08-30T02:35:29;4.13;;;2.50;;
21315;SDS011;10817;55.820;13.030;2023-08-30T02:37:57;6.10;;;2.50;;
21315;SDS011;10817;55.820;13.030;2023-08-30T02:40:24;5.13;;;2.33;;
21315;SDS011;10817;55.820;13.030;2023-08-30T02:42:52;3.80;;;2.30;;
21315;SDS011;10817;55.820;13.030;2023-08-30T02:45:19;7.00;;;2.60;;
21315;SDS011;10817;55.820;13.030;2023-08-30T02:47:47;5.97;;;2.33;;
21315;SDS011;10817;55.820;13.030;2023-08-30T02:50:14;5.03;;;2.20;;
21315;SDS011;10817;55.820;13.030;2023-08-30T02:52:42;4.57;;;2.72;;
21315;SDS011;10817;55.820;13.030;2023-08-30T02:55:10;10.77;;;2.25;;
21315;SDS011;10817;55.820;13.030;2023-08-30T02:57:37;6.25;;;2.33;;
21315;SDS011;10817;55.820;13.030;2023-08-30T03:00:05;6.35;;;2.97;;
21315;SDS011;10817;55.820;13.030;2023-08-30T03:02:34;7.07;;;2.50;;
21315;SDS011;10817;55.820;13.030;2023-08-30T03:05:02;5.40;;;2.45;;
21315;SDS011;10817;55.820;13.030;2023-08-30T03:07:30;6.38;;;3.00;;
21315;SDS011;10817;55.820;13.030;2023-08-30T03:09:57;5.68;;;2.75;;
21315;SDS011;10817;55.820;13.030;2023-08-30T03:12:26;7.97;;;2.72;;
21315;SDS011;10817;55.820;13.030;2023-08-30T03:14:53;9.25;;;2.88;;
21315;SDS011;10817;55.820;13.030;2023-08-30T03:17:21;5.95;;;2.78;;
21315;SDS011;10817;55.820;13.030;2023-08-30T03:19:51;7.97;;;2.53;;
21315;SDS011;10817;55.820;13.030;2023-08-30T03:22:20;4.30;;;2.70;;
21315;SDS011;10817;55.820;13.030;2023-08-30T03:24:47;7.60;;;2.70;;
21315;SDS011;10817;55.820;13.030;2023-08-30T03:27:15;3.72;;;2.30;;
21315;SDS011;10817;55.820;13.030;2023-08-30T03:29:45;5.00;;;2.40;;
21315;SDS011;10817;55.820;13.030;2023-08-30T03:32:16;7.82;;;2.13;;
21315;SDS011;10817;55.820;13.030;2023-08-30T03:34:44;5.18;;;2.30;;
21315;SDS011;10817;55.820;13.030;2023-08-30T03:37:11;6.38;;;2.50;;
21315;SDS011;10817;55.820;13.030;2023-08-30T03:39:38;5.20;;;2.38;;
21315;SDS011;10817;55.820;13.030;2023-08-30T03:42:06;9.45;;;2.65;;
21315;SDS011;10817;55.820;13.030;2023-08-30T03:44:33;5.32;;;2.33;;
21315;SDS011;10817;55.820;13.030;2023-08-30T03:47:02;3.78;;;2.50;;
21315;SDS011;10817;55.820;13.030;2023-08-30T03:49:30;3.45;;;2.40;;
21315;SDS011;10817;55.820;13.030;2023-08-30T03:51:57;3.42;;;2.25;;
21315;SDS011;10817;55.820;13.030;2023-08-30T03:54:25;7.25;;;2.63;;
21315;SDS011;10817;55.820;13.030;2023-08-30T03:56:52;9.05;;;2.70;;
21315;SDS011;10817;55.820;13.030;2023-08-30T03:59:19;6.07;;;2.45;;
21315;SDS011;10817;55.820;13.030;2023-08-30T04:01:47;4.43;;;2.45;;
21315;SDS011;10817;55.820;13.030;2023-08-30T04:04:16;7.43;;;2.78;;
21315;SDS011;10817;55.820;13.030;2023-08-30T04:06:43;4.90;;;2.38;;
21315;SDS011;10817;55.820;13.030;2023-08-30T04:09:10;5.97;;;2.50;;
21315;SDS011;10817;55.820;13.030;2023-08-30T04:11:37;3.67;;;2.20;;
21315;SDS011;10817;55.820;13.030;2023-08-30T04:14:05;2.17;;;1.98;;
21315;SDS011;10817;55.820;13.030;2023-08-30T04:16:34;5.22;;;2.22;;
21315;SDS011;10817;55.820;13.030;2023-08-30T04:19:01;5.50;;;2.08;;
21315;SDS011;10817;55.820;13.030;2023-08-30T04:21:29;7.28;;;2.30;;
21315;SDS011;10817;55.820;13.030;2023-08-30T04:23:57;4.28;;;1.90;;
21315;SDS011;10817;55.820;13.030;2023-08-30T04:26:24;4.25;;;2.50;;
21315;SDS011;10817;55.820;13.030;2023-08-30T04:28:51;3.45;;;1.92;;
21315;SDS011;10817;55.820;13.030;2023-08-30T04:31:19;2.97;;;2.30;;
21315;SDS011;10817;55.820;13.030;2023-08-30T04:33:46;2.28;;;1.75;;
21315;SDS011;10817;55.820;13.030;2023-08-30T04:36:13;7.45;;;1.88;;
21315;SDS011;10817;55.820;13.030;2023-08-30T04:38:42;4.88;;;1.80;;
21315;SDS011;10817;55.820;13.030;2023-08-30T04:41:09;4.93;;;1.55;;
21315;SDS011;10817;55.820;13.030;2023-08-30T04:43:37;2.35;;;1.70;;
21315;SDS011;10817;55.820;13.030;2023-08-30T04:46:04;6.10;;;2.05;;
21315;SDS011;10817;55.820;13.030;2023-08-30T04:48:31;5.30;;;2.47;;
21315;SDS011;10817;55.820;13.030;2023-08-30T04:50:59;3.22;;;2.45;;
21315;SDS011;10817;55.820;13.030;2023-08-30T04:53:26;7.38;;;2.53;;
21315;SDS011;10817;55.820;13.030;2023-08-30T04:55:55;4.82;;;2.55;;
21315;SDS011;10817;55.820;13.030;2023-08-30T04:58:22;3.97;;;2.70;;
21315;SDS011;10817;55.820;13.030;2023-08-30T05:00:49;5.82;;;2.28;;
21315;SDS011;10817;55.820;13.030;2023-08-30T05:03:16;10.52;;;2.60;;
21315;SDS011;10817;55.820;13.030;2023-08-30T05:05:46;4.68;;;2.88;;
21315;SDS011;10817;55.820;13.030;2023-08-30T05:08:15;10.32;;;2.80;;
21315;SDS011;10817;55.820;13.030;2023-08-30T05:10:42;7.80;;;3.55;;
21315;SDS011;10817;55.820;13.030;2023-08-30T05:13:14;4.53;;;3.00;;
21315;SDS011;10817;55.820;13.030;2023-08-30T05:15:41;6.00;;;2.63;;
21315;SDS011;10817;55.820;13.030;2023-08-30T05:18:08;3.63;;;2.97;;
21315;SDS011;10817;55.820;13.030;2023-08-30T05:20:35;6.68;;;3.10;;
21315;SDS011;10817;55.820;13.030;2023-08-30T05:23:03;5.68;;;3.15;;
21315;SDS011;10817;55.820;13.030;2023-08-30T05:25:30;9.05;;;3.85;;
21315;SDS011;10817;55.820;13.030;2023-08-30T05:27:57;9.35;;;4.60;;
21315;SDS011;10817;55.820;13.030;2023-08-30T05:30:26;13.10;;;4.22;;
21315;SDS011;10817;55.820;13.030;2023-08-30T05:32:55;5.95;;;4.22;;
21315;SDS011;10817;55.820;13.030;2023-08-30T05:35:45;8.35;;;3.90;;
21315;SDS011;10817;55.820;13.030;2023-08-30T05:38:32;6.53;;;3.90;;
21315;SDS011;10817;55.820;13.030;2023-08-30T05:41:18;7.50;;;4.03;;
21315;SDS011;10817;55.820;13.030;2023-08-30T05:43:45;7.43;;;3.88;;
21315;SDS011;10817;55.820;13.030;2023-08-30T05:46:14;6.57;;;3.53;;
21315;SDS011;10817;55.820;13.030;2023-08-30T05:48:41;8.07;;;3.22;;
21315;SDS011;10817;55.820;13.030;2023-08-30T05:51:09;8.10;;;3.28;;
21315;SDS011;10817;55.820;13.030;2023-08-30T05:53:36;9.63;;;3.20;;
21315;SDS011;10817;55.820;13.030;2023-08-30T05:56:03;5.07;;;3.65;;
21315;SDS011;10817;55.820;13.030;2023-08-30T05:58:31;7.00;;;3.72;;
21315;SDS011;10817;55.820;13.030;2023-08-30T06:00:58;7.85;;;4.57;;
21315;SDS011;10817;55.820;13.030;2023-08-30T06:03:27;11.55;;;4.53;;
21315;SDS011;10817;55.820;13.030;2023-08-30T06:05:54;11.60;;;4.72;;
21315;SDS011;10817;55.820;13.030;2023-08-30T06:08:22;7.22;;;4.63;;
21315;SDS011;10817;55.820;13.030;2023-08-30T06:10:49;5.68;;;4.45;;
21315;SDS011;10817;55.820;13.030;2023-08-30T06:13:16;11.23;;;4.28;;
21315;SDS011;10817;55.820;13.030;2023-08-30T06:15:43;10.85;;;4.80;;
21315;SDS011;10817;55.820;13.030;2023-08-30T06:18:11;7.88;;;4.55;;
21315;SDS011;10817;55.820;13.030;2023-08-30T06:20:41;7.10;;;4.50;;
21315;SDS011;10817;55.820;13.030;2023-08-30T06:23:08;12.05;;;4.85;;
21315;SDS011;10817;55.820;13.030;2023-08-30T06:25:36;12.90;;;5.30;;
21315;SDS011;10817;55.820;13.030;2023-08-30T06:28:03;12.00;;;5.30;;
21315;SDS011;10817;55.820;13.030;2023-08-30T06:30:30;10.45;;;4.93;;
21315;SDS011;10817;55.820;13.030;2023-08-30T06:32:58;11.65;;;5.05;;
21315;SDS011;10817;55.820;13.030;2023-08-30T06:35:25;11.38;;;5.25;;
21315;SDS011;10817;55.820;13.030;2023-08-30T06:37:53;6.75;;;4.50;;
21315;SDS011;10817;55.820;13.030;2023-08-30T06:40:21;12.07;;;4.38;;
21315;SDS011;10817;55.820;13.030;2023-08-30T06:42:48;8.85;;;4.75;;
21315;SDS011;10817;55.820;13.030;2023-08-30T06:45:15;9.27;;;4.22;;
21315;SDS011;10817;55.820;13.030;2023-08-30T06:47:42;8.57;;;4.63;;
21315;SDS011;10817;55.820;13.030;2023-08-30T06:50:09;10.38;;;4.38;;
21315;SDS011;10817;55.820;13.030;2023-08-30T06:52:37;7.45;;;3.88;;
21315;SDS011;10817;55.820;13.030;2023-08-30T06:55:05;7.32;;;4.00;;
21315;SDS011;10817;55.820;13.030;2023-08-30T06:57:33;8.05;;;3.30;;
21315;SDS011;10817;55.820;13.030;2023-08-30T07:00:00;10.50;;;2.92;;
21315;SDS011;10817;55.820;13.030;2023-08-30T07:02:32;8.00;;;2.58;;
21315;SDS011;10817;55.820;13.030;2023-08-30T07:05:00;9.80;;;3.10;;
21315;SDS011;10817;55.820;13.030;2023-08-30T07:07:29;6.93;;;2.47;;
21315;SDS011;10817;55.820;13.030;2023-08-30T07:09:56;7.53;;;2.42;;
21315;SDS011;10817;55.820;13.030;2023-08-30T07:12:25;4.80;;;2.50;;
21315;SDS011;10817;55.820;13.030;2023-08-30T07:14:52;3.70;;;1.92;;
21315;SDS011;10817;55.820;13.030;2023-08-30T07:17:19;9.43;;;2.00;;
21315;SDS011;10817;55.820;13.030;2023-08-30T07:19:46;6.45;;;1.88;;
21315;SDS011;10817;55.820;13.030;2023-08-30T07:22:14;4.00;;;1.98;;
21315;SDS011;10817;55.820;13.030;2023-08-30T07:24:41;3.85;;;2.00;;
21315;SDS011;10817;55.820;13.030;2023-08-30T07:27:09;5.80;;;2.08;;
21315;SDS011;10817;55.820;13.030;2023-08-30T07:29:37;4.43;;;1.80;;
21315;SDS011;10817;55.820;13.030;2023-08-30T07:32:06;4.95;;;1.98;;
21315;SDS011;10817;55.820;13.030;2023-08-30T07:34:33;3.13;;;1.92;;
21315;SDS011;10817;55.820;13.030;2023-08-30T07:37:00;3.97;;;1.95;;
21315;SDS011;10817;55.820;13.030;2023-08-30T07:39:28;6.68;;;2.08;;
21315;SDS011;10817;55.820;13.030;2023-08-30T07:41:55;5.25;;;2.03;;
21315;SDS011;10817;55.820;13.030;2023-08-30T07:44:22;5.85;;;2.83;;
21315;SDS011;10817;55.820;13.030;2023-08-30T07:46:51;2.10;;;1.90;;
21315;SDS011;10817;55.820;13.030;2023-08-30T07:49:18;6.65;;;1.90;;
21315;SDS011;10817;55.820;13.030;2023-08-30T07:51:45;3.42;;;2.00;;
21315;SDS011;10817;55.820;13.030;2023-08-30T07:54:12;5.25;;;1.60;;
21315;SDS011;10817;55.820;13.030;2023-08-30T07:56:39;4.55;;;1.75;;
21315;SDS011;10817;55.820;13.030;2023-08-30T07:59:06;8.68;;;1.83;;
21315;SDS011;10817;55.820;13.030;2023-08-30T08:01:34;3.33;;;1.90;;
21315;SDS011;10817;55.820;13.030;2023-08-30T08:04:03;2.88;;;2.17;;
21315;SDS011;10817;55.820;13.030;2023-08-30T08:06:30;3.90;;;1.63;;
21315;SDS011;10817;55.820;13.030;2023-08-30T08:08:57;3.22;;;1.70;;
21315;SDS011;10817;55.820;13.030;2023-08-30T08:11:25;2.65;;;1.50;;
21315;SDS011;10817;55.820;13.030;2023-08-30T08:13:52;5.70;;;1.50;;
21315;SDS011;10817;55.820;13.030;2023-08-30T08:16:19;3.05;;;1.60;;
21315;SDS011;10817;55.820;13.030;2023-08-30T08:18:46;2.33;;;1.13;;
21315;SDS011;10817;55.820;13.030;2023-08-30T08:21:15;1.75;;;1.13;;
21315;SDS011;10817;55.820;13.030;2023-08-30T08:23:42;2.30;;;1.20;;
21315;SDS011;10817;55.820;13.030;2023-08-30T08:26:10;3.45;;;1.58;;
21315;SDS011;10817;55.820;13.030;2023-08-30T08:28:37;6.05;;;1.58;;
21315;SDS011;10817;55.820;13.030;2023-08-30T08:31:04;3.63;;;1.50;;
21315;SDS011;10817;55.820;13.030;2023-08-30T08:33:31;8.73;;;1.20;;
21315;SDS011;10817;55.820;13.030;2023-08-30T08:35:58;3.65;;;1.23;;
21315;SDS011;10817;55.820;13.030;2023-08-30T08:38:27;2.35;;;1.00;;
21315;SDS011;10817;55.820;13.030;2023-08-30T08:41:00;4.68;;;1.08;;
21315;SDS011;10817;55.820;13.030;2023-08-30T08:43:28;3.53;;;1.10;;
21315;SDS011;10817;55.820;13.030;2023-08-30T08:45:56;2.65;;;1.17;;
21315;SDS011;10817;55.820;13.030;2023-08-30T08:48:26;3.63;;;0.90;;
21315;SDS011;10817;55.820;13.030;2023-08-30T08:50:55;3.53;;;0.90;;
21315;SDS011;10817;55.820;13.030;2023-08-30T08:53:23;1.92;;;0.90;;
21315;SDS011;10817;55.820;13.030;2023-08-30T08:55:51;1.38;;;0.73;;
21315;SDS011;10817;55.820;13.030;2023-08-30T08:58:19;4.32;;;0.80;;
21315;SDS011;10817;55.820;13.030;2023-08-30T09:00:46;2.58;;;0.70;;
21315;SDS011;10817;55.820;13.030;2023-08-30T09:03:13;1.42;;;0.88;;
21315;SDS011;10817;55.820;13.030;2023-08-30T09:05:41;1.70;;;1.10;;
21315;SDS011;10817;55.820;13.030;2023-08-30T09:08:08;2.00;;;0.80;;
21315;SDS011;10817;55.820;13.030;2023-08-30T09:10:37;1.55;;;0.63;;
21315;SDS011;10817;55.820;13.030;2023-08-30T09:13:06;1.92;;;0.82;;
21315;SDS011;10817;55.820;13.030;2023-08-30T09:15:33;3.38;;;0.80;;
21315;SDS011;10817;55.820;13.030;2023-08-30T09:18:02;1.15;;;0.68;;
21315;SDS011;10817;55.820;13.030;2023-08-30T09:20:29;2.60;;;0.80;;
21315;SDS011;10817;55.820;13.030;2023-08-30T09:22:56;2.22;;;0.93;;
21315;SDS011;10817;55.820;13.030;2023-08-30T09:25:24;2.63;;;0.90;;
21315;SDS011;10817;55.820;13.030;2023-08-30T09:27:51;1.52;;;0.80;;
21315;SDS011;10817;55.820;13.030;2023-08-30T09:30:24;1.17;;;0.80;;
21315;SDS011;10817;55.820;13.030;2023-08-30T09:32:52;1.00;;;0.60;;
21315;SDS011;10817;55.820;13.030;2023-08-30T09:35:19;1.83;;;0.50;;
21315;SDS011;10817;55.820;13.030;2023-08-30T09:37:46;1.48;;;0.63;;
21315;SDS011;10817;55.820;13.030;2023-08-30T09:40:18;1.77;;;0.98;;
21315;SDS011;10817;55.820;13.030;2023-08-30T09:42:45;2.33;;;0.95;;
21315;SDS011;10817;55.820;13.030;2023-08-30T09:45:18;1.45;;;0.90;;
21315;SDS011;10817;55.820;13.030;2023-08-30T09:47:50;3.10;;;1.15;;
21315;SDS011;10817;55.820;13.030;2023-08-30T09:50:18;4.45;;;1.20;;
21315;SDS011;10817;55.820;13.030;2023-08-30T09:52:46;2.35;;;0.98;;
21315;SDS011;10817;55.820;13.030;2023-08-30T09:55:14;3.00;;;1.10;;
21315;SDS011;10817;55.820;13.030;2023-08-30T09:57:41;3.83;;;1.20;;
21315;SDS011;10817;55.820;13.030;2023-08-30T10:00:09;4.43;;;1.17;;
21315;SDS011;10817;55.820;13.030;2023-08-30T10:02:37;3.70;;;1.08;;
21315;SDS011;10817;55.820;13.030;2023-08-30T10:05:08;4.72;;;1.10;;
21315;SDS011;10817;55.820;13.030;2023-08-30T10:07:35;3.45;;;1.08;;
21315;SDS011;10817;55.820;13.030;2023-08-30T10:10:03;1.52;;;0.90;;
21315;SDS011;10817;55.820;13.030;2023-08-30T10:12:31;4.45;;;1.10;;
21315;SDS011;10817;55.820;13.030;2023-08-30T10:14:58;4.53;;;1.15;;
21315;SDS011;10817;55.820;13.030;2023-08-30T10:17:27;7.50;;;2.22;;
21315;SDS011;10817;55.820;13.030;2023-08-30T10:19:55;2.75;;;1.25;;
21315;SDS011;10817;55.820;13.030;2023-08-30T10:22:23;6.30;;;1.55;;
21315;SDS011;10817;55.820;13.030;2023-08-30T10:24:57;4.85;;;1.10;;
21315;SDS011;10817;55.820;13.030;2023-08-30T10:27:25;1.60;;;1.10;;
21315;SDS011;10817;55.820;13.030;2023-08-30T10:29:53;2.35;;;1.20;;
21315;SDS011;10817;55.820;13.030;2023-08-30T10:32:21;2.38;;;1.00;;
21315;SDS011;10817;55.820;13.030;2023-08-30T10:34:49;2.25;;;1.00;;
21315;SDS011;10817;55.820;13.030;2023-08-30T10:37:21;2.45;;;0.88;;
21315;SDS011;10817;55.820;13.030;2023-08-30T10:39:50;1.58;;;1.00;;
21315;SDS011;10817;55.820;13.030;2023-08-30T10:42:21;1.92;;;1.02;;
21315;SDS011;10817;55.820;13.030;2023-08-30T10:44:48;1.17;;;1.00;;
21315;SDS011;10817;55.820;13.030;2023-08-30T10:47:19;2.65;;;0.88;;
21315;SDS011;10817;55.820;13.030;2023-08-30T10:49:46;1.15;;;0.90;;
21315;SDS011;10817;55.820;13.030;2023-08-30T10:52:14;1.85;;;0.80;;
21315;SDS011;10817;55.820;13.030;2023-08-30T10:54:41;2.72;;;0.80;;
21315;SDS011;10817;55.820;13.030;2023-08-30T10:57:13;2.97;;;0.80;;
21315;SDS011;10817;55.820;13.030;2023-08-30T11:00:03;4.90;;;0.80;;
21315;SDS011;10817;55.820;13.030;2023-08-30T11:02:30;3.38;;;1.00;;
21315;SDS011;10817;55.820;13.030;2023-08-30T11:04:57;2.15;;;0.90;;
21315;SDS011;10817;55.820;13.030;2023-08-30T11:07:25;2.45;;;1.00;;
21315;SDS011;10817;55.820;13.030;2023-08-30T11:09:52;1.08;;;0.70;;
21315;SDS011;10817;55.820;13.030;2023-08-30T11:12:21;1.38;;;0.73;;
21315;SDS011;10817;55.820;13.030;2023-08-30T11:14:48;1.38;;;0.80;;
21315;SDS011;10817;55.820;13.030;2023-08-30T11:17:16;2.20;;;0.88;;
21315;SDS011;10817;55.820;13.030;2023-08-30T11:19:43;1.23;;;0.70;;
21315;SDS011;10817;55.820;13.030;2023-08-30T11:22:10;2.03;;;1.02;;
21315;SDS011;10817;55.820;13.030;2023-08-30T11:24:39;3.75;;;0.90;;
21315;SDS011;10817;55.820;13.030;2023-08-30T11:27:06;2.00;;;0.82;;
21315;SDS011;10817;55.820;13.030;2023-08-30T11:29:35;5.10;;;0.88;;
21315;SDS011;10817;55.820;13.030;2023-08-30T11:32:02;1.65;;;0.70;;
21315;SDS011;10817;55.820;13.030;2023-08-30T11:34:29;1.33;;;0.50;;
21315;SDS011;10817;55.820;13.030;2023-08-30T11:36:56;3.20;;;0.57;;
21315;SDS011;10817;55.820;13.030;2023-08-30T11:39:26;1.20;;;0.50;;
21315;SDS011;10817;55.820;13.030;2023-08-30T11:41:55;1.75;;;0.50;;
21315;SDS011;10817;55.820;13.030;2023-08-30T11:44:23;1.23;;;0.45;;
21315;SDS011;10817;55.820;13.030;2023-08-30T11:46:58;7.22;;;0.98;;
21315;SDS011;10817;55.820;13.030;2023-08-30T11:49:26;1.67;;;0.80;;
21315;SDS011;10817;55.820;13.030;2023-08-30T11:51:53;1.13;;;0.70;;
21315;SDS011;10817;55.820;13.030;2023-08-30T11:54:21;2.42;;;0.60;;
21315;SDS011;10817;55.820;13.030;2023-08-30T11:56:49;1.30;;;0.60;;
21315;SDS011;10817;55.820;13.030;2023-08-30T11:59:19;1.42;;;0.60;;
21315;SDS011;10817;55.820;13.030;2023-08-30T12:01:47;1.95;;;0.80;;
21315;SDS011;10817;55.820;13.030;2023-08-30T12:04:16;1.02;;;0.60;;
21315;SDS011;10817;55.820;13.030;2023-08-30T12:06:44;1.55;;;0.60;;
21315;SDS011;10817;55.820;13.030;2023-08-30T12:09:18;1.05;;;0.47;;
21315;SDS011;10817;55.820;13.030;2023-08-30T12:11:47;1.13;;;0.60;;
21315;SDS011;10817;55.820;13.030;2023-08-30T12:14:14;1.67;;;0.68;;
21315;SDS011;10817;55.820;13.030;2023-08-30T12:16:41;1.15;;;0.60;;
21315;SDS011;10817;55.820;13.030;2023-08-30T12:19:10;2.38;;;0.68;;
21315;SDS011;10817;55.820;13.030;2023-08-30T12:21:42;3.25;;;0.60;;
21315;SDS011;10817;55.820;13.030;2023-08-30T12:24:10;2.08;;;0.70;;
21315;SDS011;10817;55.820;13.030;2023-08-30T12:26:38;1.20;;;0.60;;
21315;SDS011;10817;55.820;13.030;2023-08-30T12:29:06;1.35;;;0.55;;
21315;SDS011;10817;55.820;13.030;2023-08-30T12:31:33;3.67;;;0.93;;
21315;SDS011;10817;55.820;13.030;2023-08-30T12:34:00;1.67;;;0.60;;
21315;SDS011;10817;55.820;13.030;2023-08-30T12:36:27;1.27;;;0.55;;
21315;SDS011;10817;55.820;13.030;2023-08-30T12:38:56;1.85;;;0.65;;
21315;SDS011;10817;55.820;13.030;2023-08-30T12:41:23;1.23;;;0.80;;
21315;SDS011;10817;55.820;13.030;2023-08-30T12:43:50;1.05;;;0.60;;
21315;SDS011;10817;55.820;13.030;2023-08-30T12:46:17;3.30;;;0.60;;
21315;SDS011;10817;55.820;13.030;2023-08-30T12:48:45;3.80;;;0.70;;
21315;SDS011;10817;55.820;13.030;2023-08-30T12:51:12;0.90;;;0.60;;
21315;SDS011;10817;55.820;13.030;2023-08-30T12:53:40;0.95;;;0.60;;
21315;SDS011;10817;55.820;13.030;2023-08-30T12:56:08;1.38;;;0.55;;
21315;SDS011;10817;55.820;13.030;2023-08-30T12:58:36;1.20;;;0.77;;
21315;SDS011;10817;55.820;13.030;2023-08-30T13:01:03;1.25;;;0.47;;
21315;SDS011;10817;55.820;13.030;2023-08-30T13:03:30;1.10;;;0.95;;
21315;SDS011;10817;55.820;13.030;2023-08-30T13:05:57;1.25;;;0.63;;
21315;SDS011;10817;55.820;13.030;2023-08-30T13:08:24;0.80;;;0.70;;
21315;SDS011;10817;55.820;13.030;2023-08-30T13:10:52;0.93;;;0.60;;
21315;SDS011;10817;55.820;13.030;2023-08-30T13:13:20;5.30;;;0.60;;
21315;SDS011;10817;55.820;13.030;2023-08-30T13:15:47;1.08;;;0.80;;
21315;SDS011;10817;55.820;13.030;2023-08-30T13:18:15;2.28;;;0.60;;
21315;SDS011;10817;55.820;13.030;2023-08-30T13:20:43;3.17;;;0.70;;
21315;SDS011;10817;55.820;13.030;2023-08-30T13:23:11;2.80;;;0.70;;
21315;SDS011;10817;55.820;13.030;2023-08-30T13:25:38;3.22;;;1.02;;
21315;SDS011;10817;55.820;13.030;2023-08-30T13:28:06;1.80;;;0.70;;
21315;SDS011;10817;55.820;13.030;2023-08-30T13:30:34;0.88;;;0.70;;
21315;SDS011;10817;55.820;13.030;2023-08-30T13:33:02;1.58;;;0.70;;
21315;SDS011;10817;55.820;13.030;2023-08-30T13:35:29;1.25;;;1.00;;
21315;SDS011;10817;55.820;13.030;2023-08-30T13:37:56;0.80;;;0.57;;
21315;SDS011;10817;55.820;13.030;2023-08-30T13:40:23;1.42;;;0.60;;
21315;SDS011;10817;55.820;13.030;2023-08-30T13:42:50;2.10;;;0.80;;
21315;SDS011;10817;55.820;13.030;2023-08-30T13:45:18;0.65;;;0.60;;
21315;SDS011;10817;55.820;13.030;2023-08-30T13:47:46;1.50;;;0.57;;
21315;SDS011;10817;55.820;13.030;2023-08-30T13:50:16;1.92;;;0.80;;
21315;SDS011;10817;55.820;13.030;2023-08-30T13:52:43;0.50;;;0.50;;
21315;SDS011;10817;55.820;13.030;2023-08-30T13:55:11;1.65;;;0.60;;
21315;SDS011;10817;55.820;13.030;2023-08-30T13:57:38;0.70;;;0.50;;
21315;SDS011;10817;55.820;13.030;2023-08-30T14:00:05;1.13;;;0.52;;
21315;SDS011;10817;55.820;13.030;2023-08-30T14:02:34;1.65;;;0.60;;
21315;SDS011;10817;55.820;13.030;2023-08-30T14:05:03;0.80;;;0.70;;
21315;SDS011;10817;55.820;13.030;2023-08-30T14:07:30;1.00;;;0.60;;
21315;SDS011;10817;55.820;13.030;2023-08-30T14:09:58;1.00;;;0.60;;
21315;SDS011;10817;55.820;13.030;2023-08-30T14:12:25;1.38;;;0.63;;
21315;SDS011;10817;55.820;13.030;2023-08-30T14:14:52;1.13;;;0.60;;
21315;SDS011;10817;55.820;13.030;2023-08-30T14:17:20;1.00;;;0.50;;
21315;SDS011;10817;55.820;13.030;2023-08-30T14:20:12;1.38;;;0.52;;
21315;SDS011;10817;55.820;13.030;2023-08-30T14:22:39;2.60;;;0.70;;
21315;SDS011;10817;55.820;13.030;2023-08-30T14:25:06;0.60;;;0.50;;
21315;SDS011;10817;55.820;13.030;2023-08-30T14:27:33;0.82;;;0.68;;
21315;SDS011;10817;55.820;13.030;2023-08-30T14:30:01;0.88;;;0.65;;
21315;SDS011;10817;55.820;13.030;2023-08-30T14:32:28;0.80;;;0.60;;
21315;SDS011;10817;55.820;13.030;2023-08-30T14:34:55;1.23;;;0.60;;
21315;SDS011;10817;55.820;13.030;2023-08-30T14:37:23;1.58;;;0.70;;
21315;SDS011;10817;55.820;13.030;2023-08-30T14:39:52;0.80;;;0.60;;